Weather at Castlegar/West Kootenay Regional Airport

Public forecast

Using degrees Celsius for public forecast. Weather courtesy of forecast.io.

Current aviation weather report (METAR) for Castlegar/West Kootenay Regional Airport

Retrieved 2022/08/12 03:00 UTC (7 minutes ago):

CYCG 120300Z 05004KT 030V180 15SM -TSRA BKN070CB BKN160 24/16 A2996 RMK CB6AC1 PRESRR SLP142 DENSITY ALT 3000FT

Aviation forecast (TAF) for Castlegar/West Kootenay Regional Airport

Retrieved 2022-08-12 01:00 UTC (2 hours ago):

TAF CYCG 120040Z 1201/1204 35005KT P6SM FEW060 TEMPO 1201/1204 P6SM -SHRA BKN060 PROB30 1201/1204 VRB15G25KT 6SM TSRA BKN060CB RMK NXT FCST BY 121500Z